Osco, IL

5:04 AM CST on February 07, 2016 (GMT -0600)
PRY FARM | | Change Station
CLOSE
Current Station
Personal Weather Station
Location: GENESEO, IL
Elevation: 656 ft
Nearby Weather Stations

Elev 656 ft 41.46 °N, 90.22 °W | Updated 0 second ago

Partly Cloudy
Partly Cloudy
37.1 °F
Feels Like 27 °F
N
20.7
Wind Variable Wind from SW
Gusts 20.7 mph

Today
High -- | Low -- °F
--% Chance of Precip.
Yesterday
High -- | Low -- °F
Precip. -- in
Pressure 29.87 in
Visibility 10.0 miles
Clouds Clear
Windchill 27 °F
Dew Point 32 °F
Humidity 81%
Rainfall 0.00 in
Snow Depth Not available.
7:06 AM 5:24 PM
Waning Crescent, 2% visible
METAR KMLI 071052Z 21012KT 10SM CLR 04/M02 A2986 RMK AO2 SLP114 T00391022
Pressure 29.87 in
Visibility 10.0 miles
Clouds Clear
Windchill 27 °F
Dew Point 32 °F
Humidity 81%
Rainfall 0.00 in
Snow Depth Not available.
7:06 AM 5:24 PM
Waning Crescent, 2% visible
METAR KMLI 071052Z 21012KT 10SM CLR 04/M02 A2986 RMK AO2 SLP114 T00391022

10-Day Weather Forecast

Almanac

Astronomy

Feb. 07, 2016 Rise Set
Actual Time
Civil Twilight
Nautical Twilight
Astronomical Twilight
Moon
Length of Visible Light
Length of Day
Tomorrow will be .
, % of the Moon is Illuminated

Today's Extremes

State Highs State Lows

Community

WunderPhotos

Upload Photos

1,891,170 photos uploaded!

WunderBlog® & News

Nearby

Air Quality

  Air Quality AQ Index Pollutant
Not available.

Snow Depth

Station Depth Elevation

Earthquake Activity

City Distance Mag. Time & Date
Minimum magnitude displayed is 2.5.

Coastal Water Temperatures

Place Temperature

Stations

Nearby Weather Stations

Station Location Temp. Windchill Dew Point Humidity Wind Precip. Elev Updated Type
                   

Watches & Warnings

There are currently no watches in effect.